sensor_id;sensor_type;location;lat;lon;timestamp;temperature;humidity
6293;DHT22;3179;54.350;10.102;2022-09-09T00:02:15;16.70;99.90
6293;DHT22;3179;54.350;10.102;2022-09-09T00:04:51;16.70;99.90
6293;DHT22;3179;54.350;10.102;2022-09-09T00:07:27;16.70;99.90
6293;DHT22;3179;54.350;10.102;2022-09-09T00:10:03;16.70;99.90
6293;DHT22;3179;54.350;10.102;2022-09-09T00:12:38;16.60;99.90
6293;DHT22;3179;54.350;10.102;2022-09-09T00:15:11;16.60;99.90
6293;DHT22;3179;54.350;10.102;2022-09-09T00:17:43;16.70;99.90
6293;DHT22;3179;54.350;10.102;2022-09-09T00:20:21;16.70;99.90
6293;DHT22;3179;54.350;10.102;2022-09-09T00:22:56;16.80;99.90
6293;DHT22;3179;54.350;10.102;2022-09-09T00:25:31;16.70;99.90
6293;DHT22;3179;54.350;10.102;2022-09-09T00:28:04;16.70;99.90
6293;DHT22;3179;54.350;10.102;2022-09-09T00:30:35;16.70;99.90
6293;DHT22;3179;54.350;10.102;2022-09-09T00:33:11;16.70;99.90
6293;DHT22;3179;54.350;10.102;2022-09-09T00:35:44;16.70;99.90
6293;DHT22;3179;54.350;10.102;2022-09-09T00:38:15;16.70;99.90
6293;DHT22;3179;54.350;10.102;2022-09-09T00:40:48;16.70;99.90
6293;DHT22;3179;54.350;10.102;2022-09-09T00:43:25;16.70;99.90
6293;DHT22;3179;54.350;10.102;2022-09-09T00:46:06;16.70;99.90
6293;DHT22;3179;54.350;10.102;2022-09-09T00:48:45;16.70;99.90
6293;DHT22;3179;54.350;10.102;2022-09-09T00:51:25;16.70;99.90
6293;DHT22;3179;54.350;10.102;2022-09-09T00:54:10;16.70;99.90
6293;DHT22;3179;54.350;10.102;2022-09-09T00:56:47;16.80;99.90
6293;DHT22;3179;54.350;10.102;2022-09-09T00:59:27;16.70;99.90
6293;DHT22;3179;54.350;10.102;2022-09-09T01:01:54;16.70;99.90
6293;DHT22;3179;54.350;10.102;2022-09-09T01:04:28;16.70;99.90
6293;DHT22;3179;54.350;10.102;2022-09-09T01:07:04;16.70;99.90
6293;DHT22;3179;54.350;10.102;2022-09-09T01:09:41;16.80;99.90
6293;DHT22;3179;54.350;10.102;2022-09-09T01:12:15;16.70;99.90
6293;DHT22;3179;54.350;10.102;2022-09-09T01:14:44;16.70;99.90
6293;DHT22;3179;54.350;10.102;2022-09-09T01:17:17;16.70;99.90
6293;DHT22;3179;54.350;10.102;2022-09-09T01:22:37;16.70;99.90
6293;DHT22;3179;54.350;10.102;2022-09-09T01:25:29;16.70;99.90
6293;DHT22;3179;54.350;10.102;2022-09-09T01:28:01;16.70;99.90
6293;DHT22;3179;54.350;10.102;2022-09-09T01:30:30;16.70;99.90
6293;DHT22;3179;54.350;10.102;2022-09-09T01:32:58;16.70;99.90
6293;DHT22;3179;54.350;10.102;2022-09-09T01:35:41;16.70;99.90
6293;DHT22;3179;54.350;10.102;2022-09-09T01:38:09;16.70;99.90
6293;DHT22;3179;54.350;10.102;2022-09-09T01:40:36;16.80;99.90
6293;DHT22;3179;54.350;10.102;2022-09-09T01:43:05;16.70;99.90
6293;DHT22;3179;54.350;10.102;2022-09-09T01:45:33;16.80;99.90
6293;DHT22;3179;54.350;10.102;2022-09-09T01:48:00;16.70;99.90
6293;DHT22;3179;54.350;10.102;2022-09-09T01:50:28;16.80;99.90
6293;DHT22;3179;54.350;10.102;2022-09-09T01:52:58;16.70;99.90
6293;DHT22;3179;54.350;10.102;2022-09-09T01:55:30;16.70;99.90
6293;DHT22;3179;54.350;10.102;2022-09-09T01:58:15;16.70;99.90
6293;DHT22;3179;54.350;10.102;2022-09-09T02:00:48;16.80;99.90
6293;DHT22;3179;54.350;10.102;2022-09-09T02:03:22;16.80;99.90
6293;DHT22;3179;54.350;10.102;2022-09-09T02:05:55;16.80;99.90
6293;DHT22;3179;54.350;10.102;2022-09-09T02:08:31;16.80;99.90
6293;DHT22;3179;54.350;10.102;2022-09-09T02:11:05;16.80;99.90
6293;DHT22;3179;54.350;10.102;2022-09-09T02:13:36;16.70;99.90
6293;DHT22;3179;54.350;10.102;2022-09-09T02:16:07;16.70;99.90
6293;DHT22;3179;54.350;10.102;2022-09-09T02:18:39;16.70;99.90
6293;DHT22;3179;54.350;10.102;2022-09-09T02:21:08;16.70;99.90
6293;DHT22;3179;54.350;10.102;2022-09-09T02:23:37;16.70;99.90
6293;DHT22;3179;54.350;10.102;2022-09-09T02:26:06;16.70;99.90
6293;DHT22;3179;54.350;10.102;2022-09-09T02:28:35;16.70;99.90
6293;DHT22;3179;54.350;10.102;2022-09-09T02:31:03;16.70;99.90
6293;DHT22;3179;54.350;10.102;2022-09-09T02:33:35;16.70;99.90
6293;DHT22;3179;54.350;10.102;2022-09-09T02:36:03;16.70;99.90
6293;DHT22;3179;54.350;10.102;2022-09-09T02:38:36;16.80;99.90
6293;DHT22;3179;54.350;10.102;2022-09-09T02:41:04;16.70;99.90
6293;DHT22;3179;54.350;10.102;2022-09-09T02:43:32;16.80;99.90
6293;DHT22;3179;54.350;10.102;2022-09-09T02:46:06;16.80;99.90
6293;DHT22;3179;54.350;10.102;2022-09-09T02:48:38;16.80;99.90
6293;DHT22;3179;54.350;10.102;2022-09-09T02:51:14;16.80;99.90
6293;DHT22;3179;54.350;10.102;2022-09-09T02:53:47;16.70;99.90
6293;DHT22;3179;54.350;10.102;2022-09-09T02:56:20;16.70;99.90
6293;DHT22;3179;54.350;10.102;2022-09-09T02:58:48;16.70;99.90
6293;DHT22;3179;54.350;10.102;2022-09-09T03:01:18;16.80;99.90
6293;DHT22;3179;54.350;10.102;2022-09-09T03:03:45;16.80;99.90
6293;DHT22;3179;54.350;10.102;2022-09-09T03:06:12;16.70;99.90
6293;DHT22;3179;54.350;10.102;2022-09-09T03:08:40;16.70;99.90
6293;DHT22;3179;54.350;10.102;2022-09-09T03:11:07;16.70;99.90
6293;DHT22;3179;54.350;10.102;2022-09-09T03:13:35;16.70;99.90
6293;DHT22;3179;54.350;10.102;2022-09-09T03:16:03;16.80;99.90
6293;DHT22;3179;54.350;10.102;2022-09-09T03:18:32;16.70;99.90
6293;DHT22;3179;54.350;10.102;2022-09-09T03:21:00;16.70;99.90
6293;DHT22;3179;54.350;10.102;2022-09-09T03:23:26;16.80;99.90
6293;DHT22;3179;54.350;10.102;2022-09-09T03:25:54;16.70;99.90
6293;DHT22;3179;54.350;10.102;2022-09-09T03:28:22;16.70;99.90
6293;DHT22;3179;54.350;10.102;2022-09-09T03:30:58;16.70;99.90
6293;DHT22;3179;54.350;10.102;2022-09-09T03:33:27;16.70;99.90
6293;DHT22;3179;54.350;10.102;2022-09-09T03:35:56;16.70;99.90
6293;DHT22;3179;54.350;10.102;2022-09-09T03:38:23;16.70;99.90
6293;DHT22;3179;54.350;10.102;2022-09-09T03:40:51;16.70;99.90
6293;DHT22;3179;54.350;10.102;2022-09-09T03:43:21;16.70;99.90
6293;DHT22;3179;54.350;10.102;2022-09-09T03:45:48;16.70;99.90
6293;DHT22;3179;54.350;10.102;2022-09-09T03:48:15;16.70;99.90
6293;DHT22;3179;54.350;10.102;2022-09-09T03:50:44;16.70;99.90
6293;DHT22;3179;54.350;10.102;2022-09-09T03:53:13;16.60;99.90
6293;DHT22;3179;54.350;10.102;2022-09-09T03:55:44;16.70;99.90
6293;DHT22;3179;54.350;10.102;2022-09-09T03:58:12;16.70;99.90
6293;DHT22;3179;54.350;10.102;2022-09-09T04:00:39;16.70;99.90
6293;DHT22;3179;54.350;10.102;2022-09-09T04:03:07;16.70;99.90
6293;DHT22;3179;54.350;10.102;2022-09-09T04:05:34;16.70;99.90
6293;DHT22;3179;54.350;10.102;2022-09-09T04:08:05;16.70;99.90
6293;DHT22;3179;54.350;10.102;2022-09-09T04:10:33;16.70;99.90
6293;DHT22;3179;54.350;10.102;2022-09-09T04:13:01;16.70;99.90
6293;DHT22;3179;54.350;10.102;2022-09-09T04:15:28;16.70;99.90
6293;DHT22;3179;54.350;10.102;2022-09-09T04:17:55;16.70;99.90
6293;DHT22;3179;54.350;10.102;2022-09-09T04:20:22;16.60;99.90
6293;DHT22;3179;54.350;10.102;2022-09-09T04:22:49;16.60;99.90
6293;DHT22;3179;54.350;10.102;2022-09-09T04:25:16;16.60;99.90
6293;DHT22;3179;54.350;10.102;2022-09-09T04:27:44;16.70;99.90
6293;DHT22;3179;54.350;10.102;2022-09-09T04:30:11;16.60;99.90
6293;DHT22;3179;54.350;10.102;2022-09-09T04:32:38;16.60;99.90
6293;DHT22;3179;54.350;10.102;2022-09-09T04:35:05;16.70;99.90
6293;DHT22;3179;54.350;10.102;2022-09-09T04:37:32;16.60;99.90
6293;DHT22;3179;54.350;10.102;2022-09-09T04:39:59;16.60;99.90
6293;DHT22;3179;54.350;10.102;2022-09-09T04:42:27;16.70;99.90
6293;DHT22;3179;54.350;10.102;2022-09-09T04:44:55;16.70;99.90
6293;DHT22;3179;54.350;10.102;2022-09-09T04:47:22;16.70;99.90
6293;DHT22;3179;54.350;10.102;2022-09-09T04:49:49;16.70;99.90
6293;DHT22;3179;54.350;10.102;2022-09-09T04:52:15;16.70;99.90
6293;DHT22;3179;54.350;10.102;2022-09-09T04:54:42;16.60;99.90
6293;DHT22;3179;54.350;10.102;2022-09-09T04:57:10;16.70;99.90
6293;DHT22;3179;54.350;10.102;2022-09-09T04:59:37;16.70;99.90
6293;DHT22;3179;54.350;10.102;2022-09-09T05:02:06;16.60;99.90
6293;DHT22;3179;54.350;10.102;2022-09-09T05:04:33;16.70;99.90
6293;DHT22;3179;54.350;10.102;2022-09-09T05:06:59;16.70;99.90
6293;DHT22;3179;54.350;10.102;2022-09-09T05:09:26;16.70;99.90
6293;DHT22;3179;54.350;10.102;2022-09-09T05:11:53;16.70;99.90
6293;DHT22;3179;54.350;10.102;2022-09-09T05:14:20;16.70;99.90
6293;DHT22;3179;54.350;10.102;2022-09-09T05:16:47;16.70;99.90
6293;DHT22;3179;54.350;10.102;2022-09-09T05:19:16;16.70;99.90
6293;DHT22;3179;54.350;10.102;2022-09-09T05:21:45;16.70;99.90
6293;DHT22;3179;54.350;10.102;2022-09-09T05:24:12;16.70;99.90
6293;DHT22;3179;54.350;10.102;2022-09-09T05:26:39;16.70;99.90
6293;DHT22;3179;54.350;10.102;2022-09-09T05:29:06;16.70;99.90
6293;DHT22;3179;54.350;10.102;2022-09-09T05:31:33;16.70;99.90
6293;DHT22;3179;54.350;10.102;2022-09-09T05:34:00;16.70;99.90
6293;DHT22;3179;54.350;10.102;2022-09-09T05:36:28;16.70;99.90
6293;DHT22;3179;54.350;10.102;2022-09-09T05:38:55;16.70;99.90
6293;DHT22;3179;54.350;10.102;2022-09-09T05:41:22;16.70;99.90
6293;DHT22;3179;54.350;10.102;2022-09-09T05:43:49;16.70;99.90
6293;DHT22;3179;54.350;10.102;2022-09-09T05:46:17;16.70;99.90
6293;DHT22;3179;54.350;10.102;2022-09-09T05:48:46;16.70;99.90
6293;DHT22;3179;54.350;10.102;2022-09-09T05:51:14;16.70;99.90
6293;DHT22;3179;54.350;10.102;2022-09-09T05:53:45;16.70;99.90
6293;DHT22;3179;54.350;10.102;2022-09-09T05:56:13;16.70;99.90
6293;DHT22;3179;54.350;10.102;2022-09-09T05:58:40;16.70;99.90
6293;DHT22;3179;54.350;10.102;2022-09-09T06:01:10;16.80;99.90
6293;DHT22;3179;54.350;10.102;2022-09-09T06:03:39;16.80;99.90
6293;DHT22;3179;54.350;10.102;2022-09-09T06:06:08;16.70;99.90
6293;DHT22;3179;54.350;10.102;2022-09-09T06:08:36;16.70;99.90
6293;DHT22;3179;54.350;10.102;2022-09-09T06:11:07;16.80;99.90
6293;DHT22;3179;54.350;10.102;2022-09-09T06:13:33;16.70;99.90
6293;DHT22;3179;54.350;10.102;2022-09-09T06:16:02;16.70;99.90
6293;DHT22;3179;54.350;10.102;2022-09-09T06:18:29;16.70;99.90
6293;DHT22;3179;54.350;10.102;2022-09-09T06:20:57;16.80;99.90
6293;DHT22;3179;54.350;10.102;2022-09-09T06:23:26;16.80;99.90
6293;DHT22;3179;54.350;10.102;2022-09-09T06:26:01;16.80;99.90
6293;DHT22;3179;54.350;10.102;2022-09-09T06:28:30;16.80;99.90
6293;DHT22;3179;54.350;10.102;2022-09-09T06:30:59;16.80;99.90
6293;DHT22;3179;54.350;10.102;2022-09-09T06:33:30;16.90;99.90
6293;DHT22;3179;54.350;10.102;2022-09-09T06:35:57;16.90;99.90
6293;DHT22;3179;54.350;10.102;2022-09-09T06:38:24;16.90;99.90
6293;DHT22;3179;54.350;10.102;2022-09-09T06:40:52;16.90;99.90
6293;DHT22;3179;54.350;10.102;2022-09-09T06:43:19;16.90;99.90
6293;DHT22;3179;54.350;10.102;2022-09-09T06:45:54;16.90;99.90
6293;DHT22;3179;54.350;10.102;2022-09-09T06:48:21;16.90;99.90
6293;DHT22;3179;54.350;10.102;2022-09-09T06:50:51;16.90;99.90
6293;DHT22;3179;54.350;10.102;2022-09-09T06:53:19;16.90;99.90
6293;DHT22;3179;54.350;10.102;2022-09-09T06:55:46;17.00;99.90
6293;DHT22;3179;54.350;10.102;2022-09-09T06:58:13;17.00;99.90
6293;DHT22;3179;54.350;10.102;2022-09-09T07:00:40;17.00;99.90
6293;DHT22;3179;54.350;10.102;2022-09-09T07:03:09;17.00;99.90
6293;DHT22;3179;54.350;10.102;2022-09-09T07:05:36;17.00;99.90
6293;DHT22;3179;54.350;10.102;2022-09-09T07:08:03;17.10;99.90
6293;DHT22;3179;54.350;10.102;2022-09-09T07:10:31;17.10;99.90
6293;DHT22;3179;54.350;10.102;2022-09-09T07:12:59;17.10;99.90
6293;DHT22;3179;54.350;10.102;2022-09-09T07:15:27;17.10;99.90
6293;DHT22;3179;54.350;10.102;2022-09-09T07:17:53;17.10;99.90
6293;DHT22;3179;54.350;10.102;2022-09-09T07:20:22;17.20;99.90
6293;DHT22;3179;54.350;10.102;2022-09-09T07:22:48;17.20;99.90
6293;DHT22;3179;54.350;10.102;2022-09-09T07:25:15;17.20;99.90
6293;DHT22;3179;54.350;10.102;2022-09-09T07:27:43;17.20;99.90
6293;DHT22;3179;54.350;10.102;2022-09-09T07:30:11;17.20;99.90
6293;DHT22;3179;54.350;10.102;2022-09-09T07:32:37;17.30;99.90
6293;DHT22;3179;54.350;10.102;2022-09-09T07:35:06;17.30;99.90
6293;DHT22;3179;54.350;10.102;2022-09-09T07:37:36;17.30;99.90
6293;DHT22;3179;54.350;10.102;2022-09-09T07:40:03;17.30;99.90
6293;DHT22;3179;54.350;10.102;2022-09-09T07:42:30;17.40;99.90
6293;DHT22;3179;54.350;10.102;2022-09-09T07:44:57;17.40;99.90
6293;DHT22;3179;54.350;10.102;2022-09-09T07:47:24;17.40;99.90
6293;DHT22;3179;54.350;10.102;2022-09-09T07:49:51;17.40;99.90
6293;DHT22;3179;54.350;10.102;2022-09-09T07:52:18;17.40;99.90
6293;DHT22;3179;54.350;10.102;2022-09-09T07:54:48;17.40;99.90
6293;DHT22;3179;54.350;10.102;2022-09-09T07:57:15;17.40;99.90
6293;DHT22;3179;54.350;10.102;2022-09-09T07:59:42;17.40;99.90
6293;DHT22;3179;54.350;10.102;2022-09-09T08:02:09;17.40;99.90
6293;DHT22;3179;54.350;10.102;2022-09-09T08:04:36;17.40;99.90
6293;DHT22;3179;54.350;10.102;2022-09-09T08:07:03;17.40;99.90
6293;DHT22;3179;54.350;10.102;2022-09-09T08:09:30;17.40;99.90
6293;DHT22;3179;54.350;10.102;2022-09-09T08:12:00;17.40;99.90
6293;DHT22;3179;54.350;10.102;2022-09-09T08:14:27;17.50;99.90
6293;DHT22;3179;54.350;10.102;2022-09-09T08:16:55;17.50;99.90
6293;DHT22;3179;54.350;10.102;2022-09-09T08:19:22;17.50;99.90
6293;DHT22;3179;54.350;10.102;2022-09-09T08:21:49;17.60;99.90
6293;DHT22;3179;54.350;10.102;2022-09-09T08:24:16;17.60;99.90
6293;DHT22;3179;54.350;10.102;2022-09-09T08:26:46;17.60;99.90
6293;DHT22;3179;54.350;10.102;2022-09-09T08:29:16;17.60;99.90
6293;DHT22;3179;54.350;10.102;2022-09-09T08:31:44;17.60;99.90
6293;DHT22;3179;54.350;10.102;2022-09-09T08:34:12;17.70;99.90
6293;DHT22;3179;54.350;10.102;2022-09-09T08:36:40;17.70;99.90
6293;DHT22;3179;54.350;10.102;2022-09-09T08:39:10;17.70;99.90
6293;DHT22;3179;54.350;10.102;2022-09-09T08:41:55;17.80;99.90
6293;DHT22;3179;54.350;10.102;2022-09-09T08:44:36;17.90;99.90
6293;DHT22;3179;54.350;10.102;2022-09-09T08:47:13;17.90;99.90
6293;DHT22;3179;54.350;10.102;2022-09-09T08:49:55;18.00;99.90
6293;DHT22;3179;54.350;10.102;2022-09-09T08:52:29;18.00;99.90
6293;DHT22;3179;54.350;10.102;2022-09-09T08:55:05;18.00;99.90
6293;DHT22;3179;54.350;10.102;2022-09-09T08:57:39;18.10;99.90
6293;DHT22;3179;54.350;10.102;2022-09-09T09:00:10;18.10;99.90
6293;DHT22;3179;54.350;10.102;2022-09-09T09:02:46;18.20;99.90
6293;DHT22;3179;54.350;10.102;2022-09-09T09:05:22;18.20;99.90
6293;DHT22;3179;54.350;10.102;2022-09-09T09:07:59;18.20;99.90
6293;DHT22;3179;54.350;10.102;2022-09-09T09:10:41;18.10;99.90
6293;DHT22;3179;54.350;10.102;2022-09-09T09:13:14;18.10;99.90
6293;DHT22;3179;54.350;10.102;2022-09-09T09:15:44;18.20;99.90
6293;DHT22;3179;54.350;10.102;2022-09-09T09:18:13;18.20;99.90
6293;DHT22;3179;54.350;10.102;2022-09-09T09:20:47;18.20;99.90
6293;DHT22;3179;54.350;10.102;2022-09-09T09:23:23;18.20;99.90
6293;DHT22;3179;54.350;10.102;2022-09-09T09:25:53;18.20;99.90
6293;DHT22;3179;54.350;10.102;2022-09-09T09:28:24;18.30;99.90
6293;DHT22;3179;54.350;10.102;2022-09-09T09:30:56;18.40;99.90
6293;DHT22;3179;54.350;10.102;2022-09-09T09:33:27;18.50;99.90
6293;DHT22;3179;54.350;10.102;2022-09-09T09:35:55;18.60;99.90
6293;DHT22;3179;54.350;10.102;2022-09-09T09:38:24;18.70;99.90
6293;DHT22;3179;54.350;10.102;2022-09-09T09:40:53;18.80;99.90
6293;DHT22;3179;54.350;10.102;2022-09-09T09:43:25;18.90;99.90
6293;DHT22;3179;54.350;10.102;2022-09-09T09:45:54;18.90;99.90
6293;DHT22;3179;54.350;10.102;2022-09-09T09:48:24;19.10;99.90
6293;DHT22;3179;54.350;10.102;2022-09-09T09:50:52;19.30;99.90
6293;DHT22;3179;54.350;10.102;2022-09-09T09:53:23;19.20;99.90
6293;DHT22;3179;54.350;10.102;2022-09-09T09:55:54;19.20;99.90
6293;DHT22;3179;54.350;10.102;2022-09-09T09:58:21;19.20;99.90
6293;DHT22;3179;54.350;10.102;2022-09-09T10:00:49;19.20;99.90
6293;DHT22;3179;54.350;10.102;2022-09-09T10:03:23;19.30;99.90
6293;DHT22;3179;54.350;10.102;2022-09-09T10:05:51;19.30;99.90
6293;DHT22;3179;54.350;10.102;2022-09-09T10:08:18;19.40;99.90
6293;DHT22;3179;54.350;10.102;2022-09-09T10:10:55;19.50;99.90
6293;DHT22;3179;54.350;10.102;2022-09-09T10:13:29;19.50;99.90
6293;DHT22;3179;54.350;10.102;2022-09-09T10:16:13;19.50;99.90
6293;DHT22;3179;54.350;10.102;2022-09-09T10:18:56;19.50;99.90
6293;DHT22;3179;54.350;10.102;2022-09-09T10:24:40;19.50;99.90
6293;DHT22;3179;54.350;10.102;2022-09-09T10:27:17;19.50;99.90
6293;DHT22;3179;54.350;10.102;2022-09-09T10:29:57;19.60;99.90
6293;DHT22;3179;54.350;10.102;2022-09-09T10:32:37;19.80;99.90
6293;DHT22;3179;54.350;10.102;2022-09-09T10:35:10;20.00;99.90
6293;DHT22;3179;54.350;10.102;2022-09-09T10:37:49;20.10;99.90
6293;DHT22;3179;54.350;10.102;2022-09-09T10:40:26;20.20;99.90
6293;DHT22;3179;54.350;10.102;2022-09-09T10:43:01;20.20;99.90
6293;DHT22;3179;54.350;10.102;2022-09-09T10:45:35;20.30;99.90
6293;DHT22;3179;54.350;10.102;2022-09-09T10:48:17;20.40;99.90
6293;DHT22;3179;54.350;10.102;2022-09-09T10:50:55;20.50;99.90
6293;DHT22;3179;54.350;10.102;2022-09-09T10:53:35;20.60;99.90
6293;DHT22;3179;54.350;10.102;2022-09-09T10:56:06;20.70;99.90
6293;DHT22;3179;54.350;10.102;2022-09-09T10:58:38;20.80;99.90
6293;DHT22;3179;54.350;10.102;2022-09-09T11:01:13;20.90;99.90
6293;DHT22;3179;54.350;10.102;2022-09-09T11:03:43;20.90;99.90
6293;DHT22;3179;54.350;10.102;2022-09-09T11:06:17;20.80;99.90
6293;DHT22;3179;54.350;10.102;2022-09-09T11:08:45;20.70;99.90
6293;DHT22;3179;54.350;10.102;2022-09-09T11:11:19;20.60;99.90
6293;DHT22;3179;54.350;10.102;2022-09-09T11:13:52;20.60;99.90
6293;DHT22;3179;54.350;10.102;2022-09-09T11:16:25;20.60;99.90
6293;DHT22;3179;54.350;10.102;2022-09-09T11:18:58;20.60;99.90
6293;DHT22;3179;54.350;10.102;2022-09-09T11:21:32;20.70;99.90
6293;DHT22;3179;54.350;10.102;2022-09-09T11:24:03;20.70;99.90
6293;DHT22;3179;54.350;10.102;2022-09-09T11:26:35;20.80;99.90
6293;DHT22;3179;54.350;10.102;2022-09-09T11:29:22;20.80;99.90
6293;DHT22;3179;54.350;10.102;2022-09-09T11:32:04;20.90;99.90
6293;DHT22;3179;54.350;10.102;2022-09-09T11:34:43;21.10;99.90
6293;DHT22;3179;54.350;10.102;2022-09-09T11:37:44;21.20;99.90
6293;DHT22;3179;54.350;10.102;2022-09-09T11:40:20;21.30;99.90
6293;DHT22;3179;54.350;10.102;2022-09-09T11:42:49;21.50;99.90
6293;DHT22;3179;54.350;10.102;2022-09-09T11:45:27;21.60;99.90
6293;DHT22;3179;54.350;10.102;2022-09-09T11:47:56;21.70;99.90
6293;DHT22;3179;54.350;10.102;2022-09-09T11:50:34;21.80;99.90
6293;DHT22;3179;54.350;10.102;2022-09-09T11:53:19;21.90;99.90
6293;DHT22;3179;54.350;10.102;2022-09-09T11:56:01;22.00;99.90
6293;DHT22;3179;54.350;10.102;2022-09-09T11:58:38;22.00;99.90
6293;DHT22;3179;54.350;10.102;2022-09-09T12:01:27;22.10;99.90
6293;DHT22;3179;54.350;10.102;2022-09-09T12:04:10;22.10;99.90
6293;DHT22;3179;54.350;10.102;2022-09-09T12:06:43;22.00;99.90
6293;DHT22;3179;54.350;10.102;2022-09-09T12:09:19;21.80;99.90
6293;DHT22;3179;54.350;10.102;2022-09-09T12:11:48;21.70;99.90
6293;DHT22;3179;54.350;10.102;2022-09-09T12:14:21;21.60;99.90
6293;DHT22;3179;54.350;10.102;2022-09-09T12:16:48;21.60;99.90
6293;DHT22;3179;54.350;10.102;2022-09-09T12:19:19;21.80;99.90
6293;DHT22;3179;54.350;10.102;2022-09-09T12:21:51;21.70;99.90
6293;DHT22;3179;54.350;10.102;2022-09-09T12:24:29;21.60;99.90
6293;DHT22;3179;54.350;10.102;2022-09-09T12:27:02;21.70;99.90
6293;DHT22;3179;54.350;10.102;2022-09-09T12:29:38;21.90;99.90
6293;DHT22;3179;54.350;10.102;2022-09-09T12:32:11;22.00;99.90
6293;DHT22;3179;54.350;10.102;2022-09-09T12:34:39;21.90;99.90
6293;DHT22;3179;54.350;10.102;2022-09-09T12:37:15;21.80;99.90
6293;DHT22;3179;54.350;10.102;2022-09-09T12:39:51;21.80;99.90
6293;DHT22;3179;54.350;10.102;2022-09-09T12:42:19;21.80;99.90
6293;DHT22;3179;54.350;10.102;2022-09-09T12:44:57;21.70;99.90
6293;DHT22;3179;54.350;10.102;2022-09-09T12:47:38;21.60;99.90
6293;DHT22;3179;54.350;10.102;2022-09-09T12:50:16;21.70;99.90
6293;DHT22;3179;54.350;10.102;2022-09-09T12:52:44;21.90;99.90
6293;DHT22;3179;54.350;10.102;2022-09-09T12:55:18;22.00;99.90
6293;DHT22;3179;54.350;10.102;2022-09-09T12:57:48;22.20;99.90
6293;DHT22;3179;54.350;10.102;2022-09-09T13:00:17;22.30;99.90
6293;DHT22;3179;54.350;10.102;2022-09-09T13:02:48;22.30;99.90
6293;DHT22;3179;54.350;10.102;2022-09-09T13:05:18;22.40;99.90
6293;DHT22;3179;54.350;10.102;2022-09-09T13:07:45;22.60;99.90
6293;DHT22;3179;54.350;10.102;2022-09-09T13:10:13;22.60;99.90
6293;DHT22;3179;54.350;10.102;2022-09-09T13:12:42;22.60;99.90
6293;DHT22;3179;54.350;10.102;2022-09-09T13:15:16;22.70;99.90
6293;DHT22;3179;54.350;10.102;2022-09-09T13:17:50;22.80;99.90
6293;DHT22;3179;54.350;10.102;2022-09-09T13:20:19;22.90;99.90
6293;DHT22;3179;54.350;10.102;2022-09-09T13:22:48;23.00;99.90
6293;DHT22;3179;54.350;10.102;2022-09-09T13:25:20;23.00;99.90
6293;DHT22;3179;54.350;10.102;2022-09-09T13:27:57;23.10;99.90
6293;DHT22;3179;54.350;10.102;2022-09-09T13:30:27;23.10;99.90
6293;DHT22;3179;54.350;10.102;2022-09-09T13:33:21;23.10;99.90
6293;DHT22;3179;54.350;10.102;2022-09-09T13:35:51;23.10;99.90
6293;DHT22;3179;54.350;10.102;2022-09-09T13:38:19;23.10;99.90
6293;DHT22;3179;54.350;10.102;2022-09-09T13:40:55;23.10;99.90
6293;DHT22;3179;54.350;10.102;2022-09-09T13:43:25;23.10;99.90
6293;DHT22;3179;54.350;10.102;2022-09-09T13:45:54;23.00;99.90
6293;DHT22;3179;54.350;10.102;2022-09-09T13:48:22;23.00;99.90
6293;DHT22;3179;54.350;10.102;2022-09-09T13:50:55;22.90;99.90
6293;DHT22;3179;54.350;10.102;2022-09-09T13:53:22;22.80;99.90
6293;DHT22;3179;54.350;10.102;2022-09-09T13:55:50;22.80;99.90
6293;DHT22;3179;54.350;10.102;2022-09-09T13:58:18;22.70;99.90
6293;DHT22;3179;54.350;10.102;2022-09-09T14:00:46;22.80;99.90
6293;DHT22;3179;54.350;10.102;2022-09-09T14:03:13;22.90;99.90
6293;DHT22;3179;54.350;10.102;2022-09-09T14:05:40;23.20;99.90
6293;DHT22;3179;54.350;10.102;2022-09-09T14:08:14;23.40;99.90
6293;DHT22;3179;54.350;10.102;2022-09-09T14:10:41;23.60;99.90
6293;DHT22;3179;54.350;10.102;2022-09-09T14:13:08;23.70;99.90
6293;DHT22;3179;54.350;10.102;2022-09-09T14:15:35;23.70;99.90
6293;DHT22;3179;54.350;10.102;2022-09-09T14:18:03;23.70;99.90
6293;DHT22;3179;54.350;10.102;2022-09-09T14:20:30;23.60;99.90
6293;DHT22;3179;54.350;10.102;2022-09-09T14:22:57;23.50;99.90
6293;DHT22;3179;54.350;10.102;2022-09-09T14:25:24;23.50;99.90
6293;DHT22;3179;54.350;10.102;2022-09-09T14:27:51;23.40;99.90
6293;DHT22;3179;54.350;10.102;2022-09-09T14:30:18;23.40;99.90
6293;DHT22;3179;54.350;10.102;2022-09-09T14:32:44;23.30;99.90
6293;DHT22;3179;54.350;10.102;2022-09-09T14:35:13;23.20;99.90
6293;DHT22;3179;54.350;10.102;2022-09-09T14:37:40;23.10;99.90
6293;DHT22;3179;54.350;10.102;2022-09-09T14:40:07;22.90;99.90
6293;DHT22;3179;54.350;10.102;2022-09-09T14:42:34;22.80;99.90
6293;DHT22;3179;54.350;10.102;2022-09-09T14:45:01;22.60;99.90
6293;DHT22;3179;54.350;10.102;2022-09-09T14:47:28;22.50;99.90
6293;DHT22;3179;54.350;10.102;2022-09-09T14:49:55;22.50;99.90
6293;DHT22;3179;54.350;10.102;2022-09-09T14:52:23;22.40;99.90
6293;DHT22;3179;54.350;10.102;2022-09-09T14:54:51;22.30;99.90
6293;DHT22;3179;54.350;10.102;2022-09-09T14:57:18;22.30;99.90
6293;DHT22;3179;54.350;10.102;2022-09-09T14:59:45;22.20;99.90
6293;DHT22;3179;54.350;10.102;2022-09-09T15:02:12;21.90;99.90
6293;DHT22;3179;54.350;10.102;2022-09-09T15:04:39;21.70;99.90
6293;DHT22;3179;54.350;10.102;2022-09-09T15:07:06;21.40;99.90
6293;DHT22;3179;54.350;10.102;2022-09-09T15:09:34;21.20;99.90
6293;DHT22;3179;54.350;10.102;2022-09-09T15:12:02;21.10;99.90
6293;DHT22;3179;54.350;10.102;2022-09-09T15:14:30;20.90;99.90
6293;DHT22;3179;54.350;10.102;2022-09-09T15:16:57;20.80;99.90
6293;DHT22;3179;54.350;10.102;2022-09-09T15:19:24;20.70;99.90
6293;DHT22;3179;54.350;10.102;2022-09-09T15:21:50;20.60;99.90
6293;DHT22;3179;54.350;10.102;2022-09-09T15:24:17;20.60;99.90
6293;DHT22;3179;54.350;10.102;2022-09-09T15:26:46;20.60;99.90
6293;DHT22;3179;54.350;10.102;2022-09-09T15:29:13;20.60;99.90
6293;DHT22;3179;54.350;10.102;2022-09-09T15:31:40;20.60;99.90
6293;DHT22;3179;54.350;10.102;2022-09-09T15:34:07;20.60;99.90
6293;DHT22;3179;54.350;10.102;2022-09-09T15:36:35;20.60;99.90
6293;DHT22;3179;54.350;10.102;2022-09-09T15:39:04;20.50;99.90
6293;DHT22;3179;54.350;10.102;2022-09-09T15:41:31;20.40;99.90
6293;DHT22;3179;54.350;10.102;2022-09-09T15:44:00;20.20;99.90
6293;DHT22;3179;54.350;10.102;2022-09-09T15:46:29;19.90;99.90
6293;DHT22;3179;54.350;10.102;2022-09-09T15:48:58;19.70;99.90
6293;DHT22;3179;54.350;10.102;2022-09-09T15:51:29;19.50;99.90
6293;DHT22;3179;54.350;10.102;2022-09-09T15:53:56;19.40;99.90
6293;DHT22;3179;54.350;10.102;2022-09-09T15:56:24;19.40;99.90
6293;DHT22;3179;54.350;10.102;2022-09-09T15:58:51;19.30;99.90
6293;DHT22;3179;54.350;10.102;2022-09-09T16:01:19;19.30;99.90
6293;DHT22;3179;54.350;10.102;2022-09-09T16:03:46;19.20;99.90
6293;DHT22;3179;54.350;10.102;2022-09-09T16:06:16;19.20;99.90
6293;DHT22;3179;54.350;10.102;2022-09-09T16:08:45;19.20;99.90
6293;DHT22;3179;54.350;10.102;2022-09-09T16:11:17;19.10;99.90
6293;DHT22;3179;54.350;10.102;2022-09-09T16:13:46;19.10;99.90